Time;durP1;ratioP1;P1;durP2;ratioP2;P2;SDS_P1;SDS_P2;PMS_P1;PMS_P2;Temp;Humidity;BMP_temperature;BMP_pressure;BME280_temperature;BME280_humidity;BME280_pressure;Samples;Min_cycle;Max_cycle;Signal;HPM_P1;HPM_P2
2022/05/10 00:02:15;;;;;;;;;;;16.00;70.00;;;;;;6153705;23;20341;-79
2022/05/10 00:04:44;;;;;;;;;;;16.00;70.00;;;;;;6179099;23;19921;-80
2022/05/10 00:07:11;;;;;;;;;;;16.00;69.90;;;;;;6155620;23;19931;-80
2022/05/10 00:09:38;;;;;;;;;;;16.00;69.80;;;;;;6154962;23;19987;-79
2022/05/10 00:12:05;;;;;;;;;;;15.90;70.50;;;;;;6153368;23;20449;-79
2022/05/10 00:14:32;;;;;;;;;;;15.90;70.30;;;;;;6153988;23;19917;-79
2022/05/10 00:16:58;;;;;;;;;;;15.80;70.30;;;;;;6177966;23;19916;-78
2022/05/10 00:19:27;;;;;;;;;;;15.80;70.40;;;;;;6155068;23;19972;-79
2022/05/10 00:21:55;;;;;;;;;;;15.80;70.20;;;;;;6152742;23;20297;-80
2022/05/10 00:24:22;;;;;;;;;;;15.80;70.00;;;;;;6154459;23;19917;-79
2022/05/10 00:26:48;;;;;;;;;;;15.80;69.70;;;;;;6152831;23;20254;-79
2022/05/10 00:29:16;;;;;;;;;;;15.80;69.50;;;;;;6153787;23;20353;-78
2022/05/10 00:31:43;;;;;;;;;;;15.80;70.00;;;;;;6153727;23;19917;-79
2022/05/10 00:34:09;;;;;;;;;;;15.80;69.70;;;;;;6153041;23;19988;-79
2022/05/10 00:36:36;;;;;;;;;;;15.80;69.30;;;;;;6153800;23;19916;-78
2022/05/10 00:39:03;;;;;;;;;;;15.80;69.60;;;;;;6152249;23;19967;-78
2022/05/10 00:41:51;;;;;;;;;;;15.80;69.70;;;;;;6177886;23;19936;-79
2022/05/10 00:44:20;;;;;;;;;;;15.80;69.70;;;;;;6153024;23;20327;-79
2022/05/10 00:47:00;;;;;;;;;;;15.80;69.70;;;;;;6153629;23;19917;-79
2022/05/10 00:49:27;;;;;;;;;;;15.70;69.60;;;;;;6153344;23;19992;-80
2022/05/10 00:52:02;;;;;;;;;;;15.70;69.80;;;;;;6153146;23;19924;-79
2022/05/10 00:54:33;;;;;;;;;;;15.70;70.40;;;;;;6152712;23;20356;-79
2022/05/10 00:57:03;;;;;;;;;;;15.60;70.40;;;;;;6154882;23;19975;-78
2022/05/10 00:59:49;;;;;;;;;;;15.60;70.50;;;;;;6152443;23;20354;-79
2022/05/10 01:02:21;;;;;;;;;;;15.60;70.40;;;;;;6153268;23;19967;-79
2022/05/10 01:04:51;;;;;;;;;;;15.60;70.10;;;;;;6153141;23;19988;-79
2022/05/10 01:07:31;;;;;;;;;;;15.70;70.00;;;;;;6153022;23;19916;-78
2022/05/10 01:10:01;;;;;;;;;;;15.60;69.40;;;;;;6155111;23;19975;-78
2022/05/10 01:12:35;;;;;;;;;;;15.70;69.50;;;;;;6153477;23;19920;-79
2022/05/10 01:15:06;;;;;;;;;;;15.70;69.50;;;;;;6178128;23;20239;-78
2022/05/10 01:17:33;;;;;;;;;;;15.70;69.30;;;;;;6152694;23;19920;-79
2022/05/10 01:20:00;;;;;;;;;;;15.80;69.30;;;;;;6153804;23;19920;-80
2022/05/10 01:22:46;;;;;;;;;;;15.70;69.50;;;;;;6153282;23;20000;-79
2022/05/10 01:25:17;;;;;;;;;;;15.70;69.90;;;;;;6152962;23;19916;-78
2022/05/10 01:27:54;;;;;;;;;;;15.60;70.40;;;;;;6153934;23;19916;-79
2022/05/10 01:30:24;;;;;;;;;;;15.50;70.30;;;;;;6152442;23;19970;-78
2022/05/10 01:35:51;;;;;;;;;;;15.60;70.70;;;;;;6154167;23;19921;-79
2022/05/10 01:38:21;;;;;;;;;;;15.50;71.10;;;;;;6152831;23;19963;-78
2022/05/10 01:40:51;;;;;;;;;;;15.50;71.00;;;;;;6152707;23;19916;-78
2022/05/10 01:43:31;;;;;;;;;;;15.50;71.10;;;;;;6152559;23;19967;-78
2022/05/10 01:46:02;;;;;;;;;;;15.50;70.50;;;;;;6152521;23;19917;-78
2022/05/10 01:48:32;;;;;;;;;;;15.60;70.20;;;;;;6152646;23;19916;-78
2022/05/10 01:51:02;;;;;;;;;;;15.60;70.20;;;;;;6176508;23;20253;-80
2022/05/10 01:53:34;;;;;;;;;;;15.60;70.40;;;;;;6152109;23;19975;-78
2022/05/10 01:56:05;;;;;;;;;;;15.60;70.40;;;;;;6152337;23;19916;-78
2022/05/10 01:58:36;;;;;;;;;;;15.60;70.80;;;;;;6153174;23;19987;-79
2022/05/10 02:01:06;;;;;;;;;;;15.60;70.60;;;;;;6152929;23;19940;-79
2022/05/10 02:03:39;;;;;;;;;;;15.60;70.30;;;;;;6152193;23;19927;-78
2022/05/10 02:06:06;;;;;;;;;;;15.60;70.30;;;;;;6151948;23;19975;-79
2022/05/10 02:08:39;;;;;;;;;;;15.60;70.30;;;;;;6153478;23;20333;-80
2022/05/10 02:11:10;;;;;;;;;;;15.60;70.50;;;;;;6151176;23;19916;-78
2022/05/10 02:13:57;;;;;;;;;;;15.60;70.30;;;;;;6152275;23;19916;-80
2022/05/10 02:16:27;;;;;;;;;;;15.60;70.10;;;;;;6132090;23;20373;-79
2022/05/10 02:18:53;;;;;;;;;;;15.50;70.10;;;;;;6152533;23;19917;-80
2022/05/10 02:21:23;;;;;;;;;;;15.50;70.30;;;;;;6152364;23;19928;-78
2022/05/10 02:23:56;;;;;;;;;;;15.50;70.30;;;;;;6152234;23;19920;-80
2022/05/10 02:26:28;;;;;;;;;;;15.40;70.10;;;;;;6152228;23;19917;-79
2022/05/10 02:29:04;;;;;;;;;;;15.50;70.40;;;;;;6152904;23;19920;-79
2022/05/10 02:34:40;;;;;;;;;;;15.40;70.50;;;;;;6153005;23;19982;-79
2022/05/10 02:37:06;;;;;;;;;;;15.30;71.10;;;;;;6152370;23;20305;-78
2022/05/10 02:39:33;;;;;;;;;;;15.30;71.80;;;;;;6152160;23;19975;-79
2022/05/10 02:42:00;;;;;;;;;;;15.30;70.40;;;;;;6152404;23;19920;-80
2022/05/10 02:44:32;;;;;;;;;;;15.30;70.80;;;;;;6151653;23;19921;-78
2022/05/10 02:46:59;;;;;;;;;;;15.30;70.50;;;;;;6177599;23;19916;-79
2022/05/10 02:49:26;;;;;;;;;;;15.20;70.80;;;;;;6151688;23;19953;-79
2022/05/10 02:51:52;;;;;;;;;;;15.10;71.10;;;;;;6152595;23;19947;-78
2022/05/10 02:54:19;;;;;;;;;;;15.10;71.00;;;;;;6152188;23;19916;-79
2022/05/10 02:56:46;;;;;;;;;;;15.10;71.70;;;;;;6152740;23;19916;-80
2022/05/10 02:59:18;;;;;;;;;;;15.00;71.50;;;;;;6152632;23;19955;-77
2022/05/10 03:02:05;;;;;;;;;;;15.00;71.40;;;;;;6154624;23;19920;-79
2022/05/10 03:04:42;;;;;;;;;;;15.00;71.30;;;;;;6175824;23;19987;-79
2022/05/10 03:07:09;;;;;;;;;;;15.00;71.00;;;;;;6151897;23;19935;-78
2022/05/10 03:09:36;;;;;;;;;;;15.00;71.40;;;;;;6151619;23;19921;-80
2022/05/10 03:12:05;;;;;;;;;;;15.00;71.30;;;;;;6152800;23;19963;-77
2022/05/10 03:14:32;;;;;;;;;;;14.90;71.30;;;;;;6152715;23;20298;-78
2022/05/10 03:16:58;;;;;;;;;;;14.90;71.40;;;;;;6154222;23;19920;-79
2022/05/10 03:19:25;;;;;;;;;;;15.00;71.30;;;;;;6153953;23;20019;-79
2022/05/10 03:21:52;;;;;;;;;;;14.90;71.40;;;;;;6155119;23;20302;-80
2022/05/10 03:24:19;;;;;;;;;;;14.90;71.50;;;;;;6154028;23;20563;-80
2022/05/10 03:26:48;;;;;;;;;;;14.80;71.70;;;;;;6178070;23;19916;-78
2022/05/10 03:29:15;;;;;;;;;;;14.80;71.30;;;;;;6154343;23;19924;-78
2022/05/10 03:31:42;;;;;;;;;;;14.80;71.30;;;;;;6153243;23;20230;-79
2022/05/10 03:36:55;;;;;;;;;;;14.80;71.80;;;;;;6156070;23;19916;-79
2022/05/10 03:39:22;;;;;;;;;;;14.80;71.30;;;;;;6153807;23;19921;-77
2022/05/10 03:41:49;;;;;;;;;;;14.80;71.20;;;;;;6128843;23;19920;-79
2022/05/10 03:44:16;;;;;;;;;;;14.90;70.40;;;;;;6154324;23;19948;-78
2022/05/10 03:46:45;;;;;;;;;;;14.90;70.20;;;;;;6153209;23;19920;-78
2022/05/10 03:49:13;;;;;;;;;;;15.00;70.10;;;;;;6154766;23;19920;-78
2022/05/10 03:51:46;;;;;;;;;;;15.00;69.90;;;;;;6153714;23;19917;-80
2022/05/10 03:54:12;;;;;;;;;;;15.00;69.90;;;;;;6156561;23;19928;-79
2022/05/10 03:56:39;;;;;;;;;;;15.00;70.00;;;;;;6153964;23;19986;-78
2022/05/10 03:59:06;;;;;;;;;;;15.00;69.60;;;;;;6154826;23;19916;-80
2022/05/10 04:01:34;;;;;;;;;;;15.10;70.20;;;;;;6154744;23;20367;-80
2022/05/10 04:04:02;;;;;;;;;;;15.00;70.00;;;;;;6154805;23;19928;-79
2022/05/10 04:06:29;;;;;;;;;;;14.90;70.60;;;;;;6153573;23;19921;-78
2022/05/10 04:08:56;;;;;;;;;;;14.90;70.30;;;;;;6153628;23;19924;-80
2022/05/10 04:11:23;;;;;;;;;;;14.90;71.00;;;;;;6154677;23;19929;-78
2022/05/10 04:13:49;;;;;;;;;;;14.80;70.80;;;;;;6153748;23;20346;-78
2022/05/10 04:16:16;;;;;;;;;;;14.80;71.20;;;;;;6154688;23;20405;-80
2022/05/10 04:18:43;;;;;;;;;;;14.80;71.10;;;;;;6154237;23;19920;-80
2022/05/10 04:21:10;;;;;;;;;;;14.70;71.20;;;;;;6154700;23;19921;-78
2022/05/10 04:23:37;;;;;;;;;;;14.70;71.30;;;;;;6151889;23;19921;-79
2022/05/10 04:26:10;;;;;;;;;;;14.70;70.80;;;;;;6154695;23;19987;-79
2022/05/10 04:28:37;;;;;;;;;;;14.70;71.10;;;;;;6153465;23;19921;-78
2022/05/10 04:31:04;;;;;;;;;;;14.70;71.00;;;;;;6154409;23;19925;-78
2022/05/10 04:33:32;;;;;;;;;;;14.70;70.80;;;;;;6154082;23;20346;-80
2022/05/10 04:35:58;;;;;;;;;;;14.70;71.20;;;;;;6178525;23;20353;-79
2022/05/10 04:38:25;;;;;;;;;;;14.80;70.80;;;;;;6154875;23;19921;-80
2022/05/10 04:43:38;;;;;;;;;;;14.80;70.10;;;;;;6155513;23;19971;-79
2022/05/10 04:46:05;;;;;;;;;;;14.90;69.90;;;;;;6152847;23;20361;-79
2022/05/10 04:48:33;;;;;;;;;;;15.00;69.70;;;;;;6153551;23;20257;-78
2022/05/10 04:51:01;;;;;;;;;;;15.00;69.40;;;;;;6154519;23;19948;-78
2022/05/10 04:53:28;;;;;;;;;;;15.00;69.30;;;;;;6156814;23;19968;-79
2022/05/10 04:55:55;;;;;;;;;;;15.10;69.80;;;;;;6152466;23;19924;-78
2022/05/10 04:58:22;;;;;;;;;;;15.00;70.10;;;;;;6153512;23;19921;-80
2022/05/10 05:00:49;;;;;;;;;;;15.00;70.00;;;;;;6151853;23;19920;-81
2022/05/10 05:03:16;;;;;;;;;;;14.90;70.90;;;;;;6152886;23;20081;-79
2022/05/10 05:05:42;;;;;;;;;;;15.00;70.80;;;;;;6151828;23;19920;-80
2022/05/10 05:08:09;;;;;;;;;;;14.90;70.40;;;;;;6153399;23;20361;-81
2022/05/10 05:10:36;;;;;;;;;;;15.00;70.20;;;;;;6152918;23;19924;-80
2022/05/10 05:13:03;;;;;;;;;;;15.00;69.90;;;;;;6152880;23;19920;-81
2022/05/10 05:15:30;;;;;;;;;;;15.10;70.10;;;;;;6153172;23;19925;-81
2022/05/10 05:17:57;;;;;;;;;;;15.10;69.50;;;;;;6152772;23;19925;-79
2022/05/10 05:20:24;;;;;;;;;;;15.20;69.50;;;;;;6153032;23;19955;-80
2022/05/10 05:22:50;;;;;;;;;;;15.30;68.70;;;;;;6152672;23;19991;-81
2022/05/10 05:25:17;;;;;;;;;;;15.40;68.80;;;;;;6153280;23;20342;-80
2022/05/10 05:27:44;;;;;;;;;;;15.40;68.30;;;;;;6153005;23;19928;-80
2022/05/10 05:30:15;;;;;;;;;;;15.50;68.20;;;;;;6153881;23;19931;-79
2022/05/10 05:32:42;;;;;;;;;;;15.50;67.70;;;;;;6152378;23;19948;-81
2022/05/10 05:35:11;;;;;;;;;;;15.50;67.70;;;;;;6153232;23;19920;-78
2022/05/10 05:37:38;;;;;;;;;;;15.60;68.20;;;;;;6152835;23;19920;-79
2022/05/10 05:40:08;;;;;;;;;;;15.60;67.60;;;;;;6152976;23;20405;-79
2022/05/10 05:42:44;;;;;;;;;;;15.60;67.70;;;;;;6152289;23;19948;-79
2022/05/10 05:45:12;;;;;;;;;;;15.60;68.00;;;;;;6152724;23;19924;-78
2022/05/10 05:47:39;;;;;;;;;;;15.70;66.50;;;;;;6153757;23;19975;-79
2022/05/10 05:50:06;;;;;;;;;;;15.80;66.90;;;;;;6152266;23;20231;-78
2022/05/10 05:52:33;;;;;;;;;;;15.80;66.50;;;;;;6153134;23;20337;-81
2022/05/10 05:55:00;;;;;;;;;;;15.90;66.10;;;;;;6151889;23;19924;-79
2022/05/10 05:57:27;;;;;;;;;;;15.90;66.10;;;;;;6152959;23;19920;-78
2022/05/10 05:59:54;;;;;;;;;;;16.00;66.90;;;;;;6151141;23;19924;-80
2022/05/10 06:02:22;;;;;;;;;;;15.90;66.40;;;;;;6153447;23;19920;-79
2022/05/10 06:04:49;;;;;;;;;;;16.00;66.70;;;;;;6175861;23;19920;-78
2022/05/10 06:07:16;;;;;;;;;;;16.10;67.40;;;;;;6152280;23;19952;-79
2022/05/10 06:09:43;;;;;;;;;;;16.20;66.70;;;;;;6153279;23;19921;-79
2022/05/10 06:12:11;;;;;;;;;;;16.20;66.60;;;;;;6152727;23;19928;-79
2022/05/10 06:14:38;;;;;;;;;;;16.20;66.70;;;;;;6154193;23;20261;-80
2022/05/10 06:17:08;;;;;;;;;;;16.30;66.60;;;;;;6152507;23;19951;-78
2022/05/10 06:19:37;;;;;;;;;;;16.20;66.60;;;;;;6155094;23;20257;-80
2022/05/10 06:22:05;;;;;;;;;;;16.30;67.30;;;;;;6152793;23;19932;-79
2022/05/10 06:24:32;;;;;;;;;;;16.40;66.70;;;;;;6152212;23;19920;-79
2022/05/10 06:26:59;;;;;;;;;;;16.40;66.80;;;;;;6153242;23;19924;-80
2022/05/10 06:29:25;;;;;;;;;;;16.50;66.70;;;;;;6152587;23;19944;-79
2022/05/10 06:31:52;;;;;;;;;;;16.70;65.60;;;;;;6153657;23;19921;-78
2022/05/10 06:34:19;;;;;;;;;;;16.70;66.00;;;;;;6152250;23;19931;-78
2022/05/10 06:36:46;;;;;;;;;;;16.80;66.30;;;;;;6175911;23;20198;-78
2022/05/10 06:39:13;;;;;;;;;;;16.90;65.70;;;;;;6152695;23;20338;-78
2022/05/10 06:41:40;;;;;;;;;;;17.00;66.10;;;;;;6152790;23;19925;-80
2022/05/10 06:44:07;;;;;;;;;;;17.10;65.00;;;;;;6177013;23;20257;-79
2022/05/10 06:46:34;;;;;;;;;;;17.10;64.00;;;;;;6152883;23;19924;-80
2022/05/10 06:49:02;;;;;;;;;;;17.20;63.80;;;;;;6153258;23;19921;-78
2022/05/10 06:51:29;;;;;;;;;;;17.30;64.80;;;;;;6154691;23;19956;-80
2022/05/10 06:53:56;;;;;;;;;;;17.40;65.10;;;;;;6153443;23;20338;-80
2022/05/10 06:56:22;;;;;;;;;;;17.50;63.50;;;;;;6156077;23;19920;-81
2022/05/10 06:58:49;;;;;;;;;;;17.60;64.00;;;;;;6154002;23;19924;-80
2022/05/10 07:01:16;;;;;;;;;;;17.70;62.20;;;;;;6179096;23;19921;-79
2022/05/10 07:03:44;;;;;;;;;;;17.80;62.80;;;;;;6178964;23;19920;-79
2022/05/10 07:06:12;;;;;;;;;;;18.00;61.90;;;;;;6155249;23;19987;-80
2022/05/10 07:08:39;;;;;;;;;;;18.10;62.90;;;;;;6154782;23;19932;-82
2022/05/10 07:11:06;;;;;;;;;;;18.30;62.20;;;;;;6153328;23;19967;-80
2022/05/10 07:13:33;;;;;;;;;;;18.50;60.80;;;;;;6156082;23;19924;-80
2022/05/10 07:16:01;;;;;;;;;;;18.50;60.30;;;;;;6154475;23;19924;-81
2022/05/10 07:18:28;;;;;;;;;;;18.50;59.30;;;;;;6154623;23;20297;-78
2022/05/10 07:20:55;;;;;;;;;;;18.60;60.80;;;;;;6156003;23;20021;-81
2022/05/10 07:23:23;;;;;;;;;;;18.80;59.60;;;;;;6155015;23;19920;-80
2022/05/10 07:25:50;;;;;;;;;;;18.90;58.80;;;;;;6153447;23;20364;-80
2022/05/10 07:28:17;;;;;;;;;;;19.20;58.60;;;;;;6153264;23;19951;-79
2022/05/10 07:30:44;;;;;;;;;;;19.30;59.60;;;;;;6154735;23;19924;-79
2022/05/10 07:33:11;;;;;;;;;;;19.60;58.00;;;;;;6153115;23;19971;-79
2022/05/10 07:38:23;;;;;;;;;;;19.90;56.90;;;;;;6155960;23;19921;-79
2022/05/10 07:40:50;;;;;;;;;;;20.00;55.10;;;;;;6156227;23;19921;-78
2022/05/10 07:43:18;;;;;;;;;;;20.10;55.60;;;;;;6153463;23;19931;-79
2022/05/10 07:45:46;;;;;;;;;;;20.30;55.60;;;;;;6154758;23;19932;-80
2022/05/10 07:48:12;;;;;;;;;;;20.50;56.30;;;;;;6153324;23;19971;-78
2022/05/10 07:50:39;;;;;;;;;;;20.70;53.90;;;;;;6153237;23;19924;-81
2022/05/10 07:53:09;;;;;;;;;;;20.70;53.30;;;;;;6155494;23;19920;-80
2022/05/10 07:55:36;;;;;;;;;;;20.70;53.00;;;;;;6179862;23;20253;-79
2022/05/10 07:58:06;;;;;;;;;;;20.90;52.70;;;;;;6155063;23;20334;-80
2022/05/10 08:00:35;;;;;;;;;;;20.90;53.20;;;;;;6155087;23;20264;-79
2022/05/10 08:03:13;;;;;;;;;;;21.00;53.60;;;;;;6150896;23;19920;-81
2022/05/10 08:05:40;;;;;;;;;;;21.00;53.60;;;;;;6155259;23;19924;-79
2022/05/10 08:08:07;;;;;;;;;;;20.80;54.20;;;;;;6153134;23;19971;-80
2022/05/10 08:10:35;;;;;;;;;;;20.80;55.90;;;;;;6154054;23;19928;-78
2022/05/10 08:13:03;;;;;;;;;;;20.90;57.50;;;;;;6156424;23;19948;-79
2022/05/10 08:15:30;;;;;;;;;;;21.30;56.40;;;;;;6155582;23;19955;-80
2022/05/10 08:17:57;;;;;;;;;;;21.40;55.80;;;;;;6155584;23;19969;-78
2022/05/10 08:20:23;;;;;;;;;;;21.10;57.50;;;;;;6180197;23;19928;-79
2022/05/10 08:22:50;;;;;;;;;;;21.30;57.40;;;;;;6153149;23;19936;-79
2022/05/10 08:25:17;;;;;;;;;;;21.70;57.50;;;;;;6177949;23;20231;-78
2022/05/10 08:27:44;;;;;;;;;;;22.00;56.70;;;;;;6154500;23;20334;-80
2022/05/10 08:30:10;;;;;;;;;;;22.20;54.40;;;;;;6153779;23;19944;-81
2022/05/10 08:32:39;;;;;;;;;;;22.30;54.60;;;;;;6153846;23;20346;-80
2022/05/10 08:35:26;;;;;;;;;;;22.20;53.30;;;;;;6153358;23;20293;-80
2022/05/10 08:37:53;;;;;;;;;;;22.30;54.40;;;;;;6153605;23;19924;-79
2022/05/10 08:40:20;;;;;;;;;;;22.20;53.30;;;;;;6152273;23;19925;-79
2022/05/10 08:42:48;;;;;;;;;;;22.00;52.10;;;;;;6154248;23;19920;-78
2022/05/10 08:45:18;;;;;;;;;;;21.90;53.70;;;;;;6152308;23;19925;-80
2022/05/10 08:47:45;;;;;;;;;;;22.00;56.20;;;;;;6154406;23;20376;-79
2022/05/10 08:50:13;;;;;;;;;;;22.30;53.80;;;;;;6153416;23;19975;-79
2022/05/10 08:53:01;;;;;;;;;;;22.10;55.00;;;;;;6153568;23;19956;-80
2022/05/10 08:55:30;;;;;;;;;;;21.90;55.40;;;;;;6152902;23;19921;-79
2022/05/10 08:58:02;;;;;;;;;;;22.10;53.50;;;;;;6153325;23;20301;-79
2022/05/10 09:00:29;;;;;;;;;;;22.40;53.10;;;;;;6154138;23;20305;-80
2022/05/10 09:02:57;;;;;;;;;;;22.60;54.30;;;;;;6153131;23;19921;-78
2022/05/10 09:05:35;;;;;;;;;;;22.50;53.20;;;;;;6152975;23;20402;-81
2022/05/10 09:08:11;;;;;;;;;;;22.70;53.50;;;;;;6153139;23;19921;-79
2022/05/10 09:10:38;;;;;;;;;;;22.80;51.40;;;;;;6153101;23;19925;-78
2022/05/10 09:13:10;;;;;;;;;;;22.40;52.80;;;;;;6152614;23;20408;-79
2022/05/10 09:15:44;;;;;;;;;;;22.40;54.20;;;;;;6152406;23;19920;-79
2022/05/10 09:18:16;;;;;;;;;;;22.50;54.60;;;;;;6153218;23;19921;-79
2022/05/10 09:20:51;;;;;;;;;;;22.90;54.20;;;;;;6154318;23;19943;-79
2022/05/10 09:23:20;;;;;;;;;;;22.80;52.80;;;;;;6152615;23;20678;-80
2022/05/10 09:25:48;;;;;;;;;;;22.80;53.90;;;;;;6154108;23;19920;-79
2022/05/10 09:28:22;;;;;;;;;;;22.90;53.50;;;;;;6175763;23;19925;-80
2022/05/10 09:36:25;;;;;;;;;;;23.30;52.90;;;;;;6154663;23;20342;-80
2022/05/10 09:38:53;;;;;;;;;;;23.20;51.60;;;;;;6153180;23;19936;-79
2022/05/10 09:41:25;;;;;;;;;;;22.90;52.00;;;;;;6151480;23;19921;-79
2022/05/10 09:43:53;;;;;;;;;;;23.00;52.20;;;;;;6152595;23;19920;-78
2022/05/10 09:46:23;;;;;;;;;;;23.10;50.40;;;;;;6177301;23;19924;-80
2022/05/10 09:48:50;;;;;;;;;;;23.30;52.30;;;;;;6153917;23;20392;-79
2022/05/10 09:51:24;;;;;;;;;;;23.50;51.20;;;;;;6154618;23;19920;-79
2022/05/10 09:53:52;;;;;;;;;;;23.70;50.40;;;;;;6153384;23;19920;-80
2022/05/10 09:56:25;;;;;;;;;;;23.80;50.60;;;;;;6153853;23;19925;-80
2022/05/10 09:58:57;;;;;;;;;;;23.90;51.00;;;;;;6154849;23;20231;-81
2022/05/10 10:01:57;;;;;;;;;;;23.70;50.60;;;;;;6152883;23;19929;-79
2022/05/10 10:04:24;;;;;;;;;;;23.70;50.50;;;;;;6121262;23;19920;-79
2022/05/10 10:07:15;;;;;;;;;;;23.70;48.70;;;;;;6154144;23;19975;-78
2022/05/10 10:09:46;;;;;;;;;;;23.90;50.80;;;;;;6165867;23;19920;-81
2022/05/10 10:12:33;;;;;;;;;;;24.40;52.00;;;;;;6177182;23;19921;-77
2022/05/10 10:15:00;;;;;;;;;;;24.50;47.70;;;;;;6153889;23;19924;-81
2022/05/10 10:17:36;;;;;;;;;;;24.80;49.30;;;;;;6153104;23;20397;-79
2022/05/10 10:20:06;;;;;;;;;;;25.20;49.10;;;;;;6153573;23;20254;-80
2022/05/10 10:22:39;;;;;;;;;;;24.50;47.10;;;;;;6152922;23;19948;-80
2022/05/10 10:25:16;;;;;;;;;;;24.20;49.40;;;;;;6152415;23;19920;-79
2022/05/10 10:27:47;;;;;;;;;;;24.40;50.40;;;;;;6152127;23;19921;-79
2022/05/10 10:30:20;;;;;;;;;;;24.70;49.90;;;;;;6152524;23;20258;-79
2022/05/10 10:32:51;;;;;;;;;;;24.80;49.80;;;;;;6152289;23;20301;-79
2022/05/10 10:35:31;;;;;;;;;;;24.90;48.00;;;;;;6152579;23;19920;-82
2022/05/10 10:38:05;;;;;;;;;;;24.70;47.50;;;;;;6153171;23;20425;-78
2022/05/10 10:40:37;;;;;;;;;;;24.80;49.10;;;;;;6153550;23;19921;-81
2022/05/10 10:43:16;;;;;;;;;;;24.60;47.30;;;;;;6153616;23;19924;-79
2022/05/10 10:45:47;;;;;;;;;;;24.40;47.60;;;;;;6153781;23;20294;-80
2022/05/10 10:48:26;;;;;;;;;;;24.60;50.80;;;;;;6153010;23;19921;-80
2022/05/10 10:50:53;;;;;;;;;;;24.90;48.10;;;;;;6152893;23;19972;-80
2022/05/10 10:53:21;;;;;;;;;;;25.00;46.60;;;;;;6152869;23;19921;-80
2022/05/10 10:55:48;;;;;;;;;;;25.00;49.60;;;;;;6153388;23;19920;-80
2022/05/10 10:58:18;;;;;;;;;;;25.30;47.90;;;;;;6152669;23;19975;-79
2022/05/10 11:00:55;;;;;;;;;;;25.20;47.60;;;;;;6153084;23;19924;-79
2022/05/10 11:03:48;;;;;;;;;;;25.10;48.70;;;;;;6152031;23;19921;-81
2022/05/10 11:06:21;;;;;;;;;;;25.20;52.30;;;;;;6151625;23;19921;-81
2022/05/10 11:08:49;;;;;;;;;;;25.10;47.00;;;;;;6153743;23;20471;-78
2022/05/10 11:11:16;;;;;;;;;;;25.20;50.00;;;;;;6152314;23;19925;-81
2022/05/10 11:14:00;;;;;;;;;;;25.40;49.70;;;;;;6153600;23;19928;-79
2022/05/10 11:16:45;;;;;;;;;;;25.40;47.70;;;;;;6151841;23;20258;-80
2022/05/10 11:19:15;;;;;;;;;;;25.50;48.50;;;;;;6151748;23;19979;-79
2022/05/10 11:21:41;;;;;;;;;;;25.00;46.30;;;;;;6152936;23;19921;-82
2022/05/10 11:24:14;;;;;;;;;;;24.80;48.30;;;;;;6152172;23;19932;-79
2022/05/10 11:26:46;;;;;;;;;;;24.90;49.90;;;;;;6152354;23;19920;-79
2022/05/10 11:29:32;;;;;;;;;;;25.30;49.50;;;;;;6151887;23;19921;-82
2022/05/10 11:32:08;;;;;;;;;;;25.10;48.00;;;;;;6153597;23;20305;-82
2022/05/10 11:34:53;;;;;;;;;;;25.30;46.70;;;;;;6152243;23;19924;-81
2022/05/10 11:37:31;;;;;;;;;;;25.80;48.00;;;;;;6154547;23;19925;-81
2022/05/10 11:40:17;;;;;;;;;;;25.90;47.20;;;;;;6154377;23;20262;-80
2022/05/10 11:42:53;;;;;;;;;;;25.40;46.00;;;;;;6155968;23;19920;-81
2022/05/10 11:45:20;;;;;;;;;;;25.40;47.80;;;;;;6152140;23;19924;-81
2022/05/10 11:48:05;;;;;;;;;;;25.70;47.60;;;;;;6144667;23;20338;-82
2022/05/10 11:51:38;;;;;;;;;;;25.60;47.90;;;;;;6179448;23;19926;-77
2022/05/10 11:53:34;;;;;;;;;;;25.20;47.70;;;;;;6142228;23;19928;-78
2022/05/10 11:56:01;;;;;;;;;;;25.60;47.90;;;;;;6154546;23;19968;-79
2022/05/10 11:58:29;;;;;;;;;;;25.90;47.20;;;;;;6154265;23;20408;-79
2022/05/10 12:00:57;;;;;;;;;;;26.10;46.40;;;;;;6153844;23;19920;-80
2022/05/10 12:03:36;;;;;;;;;;;25.80;47.10;;;;;;6153229;23;19925;-79
2022/05/10 12:06:31;;;;;;;;;;;26.20;45.30;;;;;;6151456;23;20770;-77
2022/05/10 12:08:59;;;;;;;;;;;26.20;46.80;;;;;;6154132;23;20268;-79
2022/05/10 12:11:32;;;;;;;;;;;26.40;45.30;;;;;;6154866;23;20242;-79
2022/05/10 12:22:19;;;;;;;;;;;26.40;43.90;;;;;;6155360;23;19927;-80
2022/05/10 12:24:46;;;;;;;;;;;26.80;45.80;;;;;;6154470;23;19920;-79
2022/05/10 12:27:15;;;;;;;;;;;26.90;42.20;;;;;;6151397;23;20346;-77
2022/05/10 12:29:41;;;;;;;;;;;27.00;42.70;;;;;;6155422;23;19924;-81
2022/05/10 12:32:11;;;;;;;;;;;26.80;44.30;;;;;;6152857;23;19924;-79
2022/05/10 12:34:48;;;;;;;;;;;27.10;43.60;;;;;;6154508;23;19944;-79
2022/05/10 12:37:28;;;;;;;;;;;27.10;43.50;;;;;;6153437;23;19928;-80
2022/05/10 12:39:55;;;;;;;;;;;26.70;44.10;;;;;;6153343;23;20338;-80
2022/05/10 12:42:41;;;;;;;;;;;26.70;44.20;;;;;;6152992;23;19971;-78
2022/05/10 12:45:26;;;;;;;;;;;26.50;42.10;;;;;;6153207;23;19920;-78
2022/05/10 12:48:19;;;;;;;;;;;26.30;42.80;;;;;;6153748;23;19925;-78
2022/05/10 12:50:54;;;;;;;;;;;26.40;43.00;;;;;;6154097;23;19928;-78
2022/05/10 12:53:29;;;;;;;;;;;26.10;44.30;;;;;;6152949;23;19927;-81
2022/05/10 12:56:11;;;;;;;;;;;26.90;42.70;;;;;;6154078;23;19987;-78
2022/05/10 12:58:41;;;;;;;;;;;27.30;41.50;;;;;;6153461;23;19925;-80
2022/05/10 13:01:11;;;;;;;;;;;27.30;39.50;;;;;;6153360;23;19921;-79
2022/05/10 13:03:45;;;;;;;;;;;27.30;39.70;;;;;;6154463;23;19927;-78
2022/05/10 13:06:33;;;;;;;;;;;27.50;38.90;;;;;;6154307;23;19925;-79
2022/05/10 13:09:23;;;;;;;;;;;27.70;37.40;;;;;;6152431;23;19928;-79
2022/05/10 13:12:01;;;;;;;;;;;27.30;39.60;;;;;;6166855;23;19920;-79
2022/05/10 13:14:30;;;;;;;;;;;27.60;40.40;;;;;;6152787;23;19921;-79
2022/05/10 13:16:59;;;;;;;;;;;27.60;41.00;;;;;;6166007;23;20460;-78
2022/05/10 13:19:28;;;;;;;;;;;27.40;38.70;;;;;;6173199;23;19924;-79
2022/05/10 13:22:05;;;;;;;;;;;27.50;39.90;;;;;;6152463;23;19928;-80
2022/05/10 13:24:32;;;;;;;;;;;27.70;39.30;;;;;;6155476;23;19924;-80
2022/05/10 13:27:00;;;;;;;;;;;27.70;39.60;;;;;;6177032;23;21875;-77
2022/05/10 13:29:42;;;;;;;;;;;27.50;39.20;;;;;;6154040;23;19949;-80
2022/05/10 13:32:10;;;;;;;;;;;27.80;38.70;;;;;;6152598;23;20302;-80
2022/05/10 13:34:57;;;;;;;;;;;28.00;38.30;;;;;;6153927;23;20377;-79
2022/05/10 13:37:27;;;;;;;;;;;27.70;38.50;;;;;;6176112;23;19920;-82
2022/05/10 13:39:56;;;;;;;;;;;27.40;40.50;;;;;;6153081;23;19924;-78
2022/05/10 13:42:23;;;;;;;;;;;26.60;38.50;;;;;;6152212;23;19921;-80
2022/05/10 13:44:50;;;;;;;;;;;27.10;41.60;;;;;;6153627;23;19943;-80
2022/05/10 13:47:35;;;;;;;;;;;27.90;39.90;;;;;;6151581;23;19928;-80
2022/05/10 13:50:02;;;;;;;;;;;28.50;42.30;;;;;;6177773;23;19921;-80
2022/05/10 13:52:34;;;;;;;;;;;28.50;38.40;;;;;;6153754;23;19928;-81
2022/05/10 13:55:06;;;;;;;;;;;28.60;37.60;;;;;;6153719;23;19920;-79
2022/05/10 13:57:35;;;;;;;;;;;28.30;36.20;;;;;;6153312;23;19925;-80
2022/05/10 14:00:19;;;;;;;;;;;28.20;37.60;;;;;;6152348;23;19975;-80
2022/05/10 14:02:50;;;;;;;;;;;28.20;38.70;;;;;;6152361;23;19927;-79
2022/05/10 14:05:18;;;;;;;;;;;28.20;40.10;;;;;;6152820;23;19925;-80
2022/05/10 14:07:48;;;;;;;;;;;27.80;38.60;;;;;;6154841;23;19920;-80
2022/05/10 14:10:16;;;;;;;;;;;27.80;40.50;;;;;;6152490;23;20401;-80
2022/05/10 14:12:48;;;;;;;;;;;27.90;40.50;;;;;;6155511;23;20243;-80
2022/05/10 14:15:31;;;;;;;;;;;28.20;40.40;;;;;;6153802;23;20016;-82
2022/05/10 14:18:03;;;;;;;;;;;27.80;39.50;;;;;;6154695;23;19970;-78
2022/05/10 14:20:34;;;;;;;;;;;27.70;41.70;;;;;;6152364;23;20334;-80
2022/05/10 14:23:04;;;;;;;;;;;27.40;40.70;;;;;;6154981;23;19975;-78
2022/05/10 14:25:33;;;;;;;;;;;27.60;42.50;;;;;;6153545;23;19920;-79
2022/05/10 14:30:54;;;;;;;;;;;27.70;40.30;;;;;;6132268;23;19924;-78
2022/05/10 14:33:22;;;;;;;;;;;28.20;40.60;;;;;;6153631;23;19921;-80
2022/05/10 14:36:00;;;;;;;;;;;27.30;39.70;;;;;;6152661;23;20250;-81
2022/05/10 14:38:28;;;;;;;;;;;27.10;41.00;;;;;;6153842;23;19925;-80
2022/05/10 14:40:55;;;;;;;;;;;27.20;43.00;;;;;;6152362;23;19925;-80
2022/05/10 14:43:21;;;;;;;;;;;27.60;41.40;;;;;;6153236;23;19920;-81
2022/05/10 14:45:49;;;;;;;;;;;27.70;41.40;;;;;;6153751;23;20261;-81
2022/05/10 14:48:25;;;;;;;;;;;27.40;41.10;;;;;;6178879;23;20346;-81
2022/05/10 14:50:57;;;;;;;;;;;27.90;41.90;;;;;;6153685;23;19924;-82
2022/05/10 14:53:28;;;;;;;;;;;27.70;40.30;;;;;;6154728;23;19924;-81
2022/05/10 14:56:01;;;;;;;;;;;27.30;42.30;;;;;;6152794;23;19943;-79
2022/05/10 14:58:29;;;;;;;;;;;27.50;41.50;;;;;;6154130;23;20383;-82
2022/05/10 15:01:00;;;;;;;;;;;27.60;41.70;;;;;;6152164;23;20330;-83
2022/05/10 15:03:27;;;;;;;;;;;27.60;40.10;;;;;;6153690;23;20024;-79
2022/05/10 15:05:55;;;;;;;;;;;27.40;42.40;;;;;;6177088;23;19948;-79
2022/05/10 15:08:22;;;;;;;;;;;26.70;41.80;;;;;;6153479;23;19920;-79